sensor_id;sensor_type;location;lat;lon;timestamp;temperature;humidity
66568;DHT22;53422;49.296;6.900;2023-12-07T00:01:26;3.10;99.90
66568;DHT22;53422;49.296;6.900;2023-12-07T00:03:51;3.10;99.90
66568;DHT22;53422;49.296;6.900;2023-12-07T00:06:17;3.10;99.90
66568;DHT22;53422;49.296;6.900;2023-12-07T00:08:42;3.10;99.90
66568;DHT22;53422;49.296;6.900;2023-12-07T00:11:08;3.10;99.90
66568;DHT22;53422;49.296;6.900;2023-12-07T00:13:34;3.10;99.90
66568;DHT22;53422;49.296;6.900;2023-12-07T00:15:59;3.10;99.90
66568;DHT22;53422;49.296;6.900;2023-12-07T00:18:25;3.00;99.90
66568;DHT22;53422;49.296;6.900;2023-12-07T00:20:50;3.10;99.90
66568;DHT22;53422;49.296;6.900;2023-12-07T00:23:16;3.10;99.90
66568;DHT22;53422;49.296;6.900;2023-12-07T00:25:41;3.10;99.90
66568;DHT22;53422;49.296;6.900;2023-12-07T00:28:07;3.10;99.90
66568;DHT22;53422;49.296;6.900;2023-12-07T00:30:33;3.10;99.90
66568;DHT22;53422;49.296;6.900;2023-12-07T00:32:59;3.10;99.90
66568;DHT22;53422;49.296;6.900;2023-12-07T00:35:25;3.10;99.90
66568;DHT22;53422;49.296;6.900;2023-12-07T00:37:57;3.10;99.90
66568;DHT22;53422;49.296;6.900;2023-12-07T00:40:23;3.10;99.90
66568;DHT22;53422;49.296;6.900;2023-12-07T00:42:49;3.10;99.90
66568;DHT22;53422;49.296;6.900;2023-12-07T00:45:15;3.10;99.90
66568;DHT22;53422;49.296;6.900;2023-12-07T00:47:41;3.10;99.90
66568;DHT22;53422;49.296;6.900;2023-12-07T00:50:07;3.10;99.90
66568;DHT22;53422;49.296;6.900;2023-12-07T00:52:33;3.10;99.90
66568;DHT22;53422;49.296;6.900;2023-12-07T00:54:59;3.10;99.90
66568;DHT22;53422;49.296;6.900;2023-12-07T00:57:24;3.10;99.90
66568;DHT22;53422;49.296;6.900;2023-12-07T00:59:50;3.10;99.90
66568;DHT22;53422;49.296;6.900;2023-12-07T01:02:16;3.10;99.90
66568;DHT22;53422;49.296;6.900;2023-12-07T01:04:41;3.10;99.90
66568;DHT22;53422;49.296;6.900;2023-12-07T01:07:07;3.10;99.90
66568;DHT22;53422;49.296;6.900;2023-12-07T01:09:33;3.10;99.90
66568;DHT22;53422;49.296;6.900;2023-12-07T01:11:59;3.10;99.90
66568;DHT22;53422;49.296;6.900;2023-12-07T01:14:24;3.10;99.90
66568;DHT22;53422;49.296;6.900;2023-12-07T01:16:50;3.10;99.90
66568;DHT22;53422;49.296;6.900;2023-12-07T01:19:16;3.10;99.90
66568;DHT22;53422;49.296;6.900;2023-12-07T01:21:42;3.10;99.90
66568;DHT22;53422;49.296;6.900;2023-12-07T01:24:08;3.10;99.90
66568;DHT22;53422;49.296;6.900;2023-12-07T01:26:34;3.10;99.90
66568;DHT22;53422;49.296;6.900;2023-12-07T01:28:59;3.20;99.90
66568;DHT22;53422;49.296;6.900;2023-12-07T01:31:25;3.20;99.90
66568;DHT22;53422;49.296;6.900;2023-12-07T01:33:50;3.20;99.90
66568;DHT22;53422;49.296;6.900;2023-12-07T01:36:16;3.20;99.90
66568;DHT22;53422;49.296;6.900;2023-12-07T01:38:42;3.20;99.90
66568;DHT22;53422;49.296;6.900;2023-12-07T01:41:09;3.20;99.90
66568;DHT22;53422;49.296;6.900;2023-12-07T01:43:35;3.20;99.90
66568;DHT22;53422;49.296;6.900;2023-12-07T01:46:00;3.20;99.90
66568;DHT22;53422;49.296;6.900;2023-12-07T01:48:27;3.20;99.90
66568;DHT22;53422;49.296;6.900;2023-12-07T01:50:55;3.20;99.90
66568;DHT22;53422;49.296;6.900;2023-12-07T01:53:23;3.20;99.90
66568;DHT22;53422;49.296;6.900;2023-12-07T01:55:50;3.20;99.90
66568;DHT22;53422;49.296;6.900;2023-12-07T01:58:17;3.20;99.90
66568;DHT22;53422;49.296;6.900;2023-12-07T02:00:44;3.20;99.90
66568;DHT22;53422;49.296;6.900;2023-12-07T02:03:10;3.20;99.90
66568;DHT22;53422;49.296;6.900;2023-12-07T02:05:37;3.20;99.90
66568;DHT22;53422;49.296;6.900;2023-12-07T02:08:03;3.20;99.90
66568;DHT22;53422;49.296;6.900;2023-12-07T02:10:30;3.20;99.90
66568;DHT22;53422;49.296;6.900;2023-12-07T02:12:55;3.20;99.90
66568;DHT22;53422;49.296;6.900;2023-12-07T02:15:22;3.20;99.90
66568;DHT22;53422;49.296;6.900;2023-12-07T02:18:02;3.20;99.90
66568;DHT22;53422;49.296;6.900;2023-12-07T02:20:47;3.20;99.90
66568;DHT22;53422;49.296;6.900;2023-12-07T02:23:17;3.20;99.90
66568;DHT22;53422;49.296;6.900;2023-12-07T02:25:53;3.20;99.90
66568;DHT22;53422;49.296;6.900;2023-12-07T02:28:19;3.20;99.90
66568;DHT22;53422;49.296;6.900;2023-12-07T02:30:45;3.20;99.90
66568;DHT22;53422;49.296;6.900;2023-12-07T02:33:11;3.20;99.90
66568;DHT22;53422;49.296;6.900;2023-12-07T02:35:38;3.20;99.90
66568;DHT22;53422;49.296;6.900;2023-12-07T02:38:06;3.20;99.90
66568;DHT22;53422;49.296;6.900;2023-12-07T02:40:32;3.20;99.90
66568;DHT22;53422;49.296;6.900;2023-12-07T02:42:59;3.20;99.90
66568;DHT22;53422;49.296;6.900;2023-12-07T02:45:25;3.20;99.90
66568;DHT22;53422;49.296;6.900;2023-12-07T02:47:52;3.20;99.90
66568;DHT22;53422;49.296;6.900;2023-12-07T02:50:18;3.20;99.90
66568;DHT22;53422;49.296;6.900;2023-12-07T02:52:43;3.20;99.90
66568;DHT22;53422;49.296;6.900;2023-12-07T02:55:09;3.20;99.90
66568;DHT22;53422;49.296;6.900;2023-12-07T02:57:35;3.20;99.90
66568;DHT22;53422;49.296;6.900;2023-12-07T03:00:02;3.20;99.90
66568;DHT22;53422;49.296;6.900;2023-12-07T03:02:36;3.20;99.90
66568;DHT22;53422;49.296;6.900;2023-12-07T03:05:02;3.20;99.90
66568;DHT22;53422;49.296;6.900;2023-12-07T03:07:28;3.20;99.90
66568;DHT22;53422;49.296;6.900;2023-12-07T03:09:53;3.20;99.90
66568;DHT22;53422;49.296;6.900;2023-12-07T03:12:19;3.20;99.90
66568;DHT22;53422;49.296;6.900;2023-12-07T03:14:44;3.20;99.90
66568;DHT22;53422;49.296;6.900;2023-12-07T03:17:10;3.20;99.90
66568;DHT22;53422;49.296;6.900;2023-12-07T03:19:40;3.20;99.90
66568;DHT22;53422;49.296;6.900;2023-12-07T03:22:06;3.20;99.90
66568;DHT22;53422;49.296;6.900;2023-12-07T03:24:38;3.20;99.90
66568;DHT22;53422;49.296;6.900;2023-12-07T03:27:04;3.20;99.90
66568;DHT22;53422;49.296;6.900;2023-12-07T03:29:31;3.20;99.90
66568;DHT22;53422;49.296;6.900;2023-12-07T03:31:57;3.20;99.90
66568;DHT22;53422;49.296;6.900;2023-12-07T03:34:23;3.10;99.90
66568;DHT22;53422;49.296;6.900;2023-12-07T03:36:49;3.10;99.90
66568;DHT22;53422;49.296;6.900;2023-12-07T03:39:15;3.20;99.90
66568;DHT22;53422;49.296;6.900;2023-12-07T03:41:44;3.20;99.90
66568;DHT22;53422;49.296;6.900;2023-12-07T03:44:09;3.20;99.90
66568;DHT22;53422;49.296;6.900;2023-12-07T03:46:35;3.20;99.90
66568;DHT22;53422;49.296;6.900;2023-12-07T03:49:01;3.20;99.90
66568;DHT22;53422;49.296;6.900;2023-12-07T03:51:27;3.10;99.90
66568;DHT22;53422;49.296;6.900;2023-12-07T03:53:54;3.20;99.90
66568;DHT22;53422;49.296;6.900;2023-12-07T03:56:24;3.20;99.90
66568;DHT22;53422;49.296;6.900;2023-12-07T03:58:50;3.20;99.90
66568;DHT22;53422;49.296;6.900;2023-12-07T04:01:16;3.20;99.90
66568;DHT22;53422;49.296;6.900;2023-12-07T04:03:41;3.20;99.90
66568;DHT22;53422;49.296;6.900;2023-12-07T04:06:07;3.20;99.90
66568;DHT22;53422;49.296;6.900;2023-12-07T04:08:33;3.10;99.90
66568;DHT22;53422;49.296;6.900;2023-12-07T04:10:58;3.20;99.90
66568;DHT22;53422;49.296;6.900;2023-12-07T04:13:24;3.20;99.90
66568;DHT22;53422;49.296;6.900;2023-12-07T04:15:50;3.20;99.90
66568;DHT22;53422;49.296;6.900;2023-12-07T04:18:15;3.10;99.90
66568;DHT22;53422;49.296;6.900;2023-12-07T04:20:41;3.10;99.90
66568;DHT22;53422;49.296;6.900;2023-12-07T04:23:07;3.10;99.90
66568;DHT22;53422;49.296;6.900;2023-12-07T04:25:32;3.10;99.90
66568;DHT22;53422;49.296;6.900;2023-12-07T04:27:59;3.10;99.90
66568;DHT22;53422;49.296;6.900;2023-12-07T04:30:25;3.20;99.90
66568;DHT22;53422;49.296;6.900;2023-12-07T04:32:50;3.10;99.90
66568;DHT22;53422;49.296;6.900;2023-12-07T04:35:16;3.10;99.90
66568;DHT22;53422;49.296;6.900;2023-12-07T04:37:42;3.20;99.90
66568;DHT22;53422;49.296;6.900;2023-12-07T04:40:08;3.10;99.90
66568;DHT22;53422;49.296;6.900;2023-12-07T04:42:34;3.20;99.90
66568;DHT22;53422;49.296;6.900;2023-12-07T04:44:59;3.20;99.90
66568;DHT22;53422;49.296;6.900;2023-12-07T04:47:25;3.10;99.90
66568;DHT22;53422;49.296;6.900;2023-12-07T04:49:50;3.10;99.90
66568;DHT22;53422;49.296;6.900;2023-12-07T04:52:16;3.10;99.90
66568;DHT22;53422;49.296;6.900;2023-12-07T04:54:42;3.10;99.90
66568;DHT22;53422;49.296;6.900;2023-12-07T04:57:07;3.10;99.90
66568;DHT22;53422;49.296;6.900;2023-12-07T04:59:34;3.10;99.90
66568;DHT22;53422;49.296;6.900;2023-12-07T05:02:00;3.10;99.90
66568;DHT22;53422;49.296;6.900;2023-12-07T05:04:25;3.10;99.90
66568;DHT22;53422;49.296;6.900;2023-12-07T05:06:51;3.10;99.90
66568;DHT22;53422;49.296;6.900;2023-12-07T05:09:17;3.10;99.90
66568;DHT22;53422;49.296;6.900;2023-12-07T05:11:43;3.10;99.90
66568;DHT22;53422;49.296;6.900;2023-12-07T05:14:10;3.10;99.90
66568;DHT22;53422;49.296;6.900;2023-12-07T05:16:36;3.10;99.90
66568;DHT22;53422;49.296;6.900;2023-12-07T05:19:01;3.10;99.90
66568;DHT22;53422;49.296;6.900;2023-12-07T05:21:28;3.10;99.90
66568;DHT22;53422;49.296;6.900;2023-12-07T05:23:53;3.10;99.90
66568;DHT22;53422;49.296;6.900;2023-12-07T05:26:19;3.10;99.90
66568;DHT22;53422;49.296;6.900;2023-12-07T05:28:47;3.10;99.90
66568;DHT22;53422;49.296;6.900;2023-12-07T05:31:17;3.10;99.90
66568;DHT22;53422;49.296;6.900;2023-12-07T05:33:43;3.10;99.90
66568;DHT22;53422;49.296;6.900;2023-12-07T05:36:09;3.10;99.90
66568;DHT22;53422;49.296;6.900;2023-12-07T05:38:34;3.10;99.90
66568;DHT22;53422;49.296;6.900;2023-12-07T05:41:00;3.10;99.90
66568;DHT22;53422;49.296;6.900;2023-12-07T05:43:25;3.10;99.90
66568;DHT22;53422;49.296;6.900;2023-12-07T05:45:51;3.10;99.90
66568;DHT22;53422;49.296;6.900;2023-12-07T05:48:17;3.10;99.90
66568;DHT22;53422;49.296;6.900;2023-12-07T05:50:42;3.10;99.90
66568;DHT22;53422;49.296;6.900;2023-12-07T05:53:08;3.10;99.90
66568;DHT22;53422;49.296;6.900;2023-12-07T05:55:34;3.00;99.90
66568;DHT22;53422;49.296;6.900;2023-12-07T05:58:00;3.00;99.90
66568;DHT22;53422;49.296;6.900;2023-12-07T06:00:25;3.10;99.90
66568;DHT22;53422;49.296;6.900;2023-12-07T06:02:51;3.10;99.90
66568;DHT22;53422;49.296;6.900;2023-12-07T06:05:17;3.10;99.90
66568;DHT22;53422;49.296;6.900;2023-12-07T06:07:43;3.10;99.90
66568;DHT22;53422;49.296;6.900;2023-12-07T06:10:09;3.10;99.90
66568;DHT22;53422;49.296;6.900;2023-12-07T06:12:34;3.10;99.90
66568;DHT22;53422;49.296;6.900;2023-12-07T06:15:00;3.10;99.90
66568;DHT22;53422;49.296;6.900;2023-12-07T06:17:26;3.10;99.90
66568;DHT22;53422;49.296;6.900;2023-12-07T06:19:52;3.00;99.90
66568;DHT22;53422;49.296;6.900;2023-12-07T06:22:18;3.00;99.90
66568;DHT22;53422;49.296;6.900;2023-12-07T06:24:43;3.00;99.90
66568;DHT22;53422;49.296;6.900;2023-12-07T06:27:10;3.00;99.90
66568;DHT22;53422;49.296;6.900;2023-12-07T06:29:35;3.00;99.90
66568;DHT22;53422;49.296;6.900;2023-12-07T06:32:01;3.00;99.90
66568;DHT22;53422;49.296;6.900;2023-12-07T06:34:27;3.00;99.90
66568;DHT22;53422;49.296;6.900;2023-12-07T06:36:53;3.00;99.90
66568;DHT22;53422;49.296;6.900;2023-12-07T06:39:19;3.00;99.90
66568;DHT22;53422;49.296;6.900;2023-12-07T06:41:44;3.00;99.90
66568;DHT22;53422;49.296;6.900;2023-12-07T06:44:10;3.00;99.90
66568;DHT22;53422;49.296;6.900;2023-12-07T06:46:36;3.00;99.90
66568;DHT22;53422;49.296;6.900;2023-12-07T06:49:01;3.00;99.90
66568;DHT22;53422;49.296;6.900;2023-12-07T06:51:27;3.00;99.90
66568;DHT22;53422;49.296;6.900;2023-12-07T06:53:53;3.00;99.90
66568;DHT22;53422;49.296;6.900;2023-12-07T06:56:18;3.00;99.90
66568;DHT22;53422;49.296;6.900;2023-12-07T06:58:44;3.00;99.90
66568;DHT22;53422;49.296;6.900;2023-12-07T07:01:09;2.90;99.90
66568;DHT22;53422;49.296;6.900;2023-12-07T07:03:35;2.90;99.90
66568;DHT22;53422;49.296;6.900;2023-12-07T07:06:01;2.90;99.90
66568;DHT22;53422;49.296;6.900;2023-12-07T07:08:26;2.90;99.90
66568;DHT22;53422;49.296;6.900;2023-12-07T07:10:52;2.90;99.90
66568;DHT22;53422;49.296;6.900;2023-12-07T07:13:18;2.90;99.90
66568;DHT22;53422;49.296;6.900;2023-12-07T07:15:45;2.90;99.90
66568;DHT22;53422;49.296;6.900;2023-12-07T07:18:12;2.90;99.90
66568;DHT22;53422;49.296;6.900;2023-12-07T07:20:38;2.90;99.90
66568;DHT22;53422;49.296;6.900;2023-12-07T07:23:03;2.90;99.90
66568;DHT22;53422;49.296;6.900;2023-12-07T07:25:29;3.00;99.90
66568;DHT22;53422;49.296;6.900;2023-12-07T07:27:55;3.00;99.90
66568;DHT22;53422;49.296;6.900;2023-12-07T07:30:23;3.00;99.90
66568;DHT22;53422;49.296;6.900;2023-12-07T07:32:50;3.00;99.90
66568;DHT22;53422;49.296;6.900;2023-12-07T07:35:15;3.00;99.90
66568;DHT22;53422;49.296;6.900;2023-12-07T07:37:41;3.00;99.90
66568;DHT22;53422;49.296;6.900;2023-12-07T07:40:08;2.90;99.90
66568;DHT22;53422;49.296;6.900;2023-12-07T07:42:37;2.90;99.90
66568;DHT22;53422;49.296;6.900;2023-12-07T07:45:04;2.80;99.90
66568;DHT22;53422;49.296;6.900;2023-12-07T07:47:30;2.90;99.90
66568;DHT22;53422;49.296;6.900;2023-12-07T07:49:56;2.90;99.90
66568;DHT22;53422;49.296;6.900;2023-12-07T07:52:23;2.90;99.90
66568;DHT22;53422;49.296;6.900;2023-12-07T07:54:49;2.90;99.90
66568;DHT22;53422;49.296;6.900;2023-12-07T07:57:15;2.90;99.90
66568;DHT22;53422;49.296;6.900;2023-12-07T07:59:40;2.90;99.90
66568;DHT22;53422;49.296;6.900;2023-12-07T08:02:06;2.90;99.90
66568;DHT22;53422;49.296;6.900;2023-12-07T08:04:31;2.90;99.90
66568;DHT22;53422;49.296;6.900;2023-12-07T08:06:57;3.00;99.90
66568;DHT22;53422;49.296;6.900;2023-12-07T08:09:23;2.90;99.90
66568;DHT22;53422;49.296;6.900;2023-12-07T08:11:49;2.90;99.90
66568;DHT22;53422;49.296;6.900;2023-12-07T08:14:14;2.80;99.90
66568;DHT22;53422;49.296;6.900;2023-12-07T08:16:45;2.90;99.90
66568;DHT22;53422;49.296;6.900;2023-12-07T08:19:12;2.90;99.90
66568;DHT22;53422;49.296;6.900;2023-12-07T08:21:38;2.90;99.90
66568;DHT22;53422;49.296;6.900;2023-12-07T08:24:04;2.90;99.90
66568;DHT22;53422;49.296;6.900;2023-12-07T08:26:31;2.90;99.90
66568;DHT22;53422;49.296;6.900;2023-12-07T08:28:57;2.90;99.90
66568;DHT22;53422;49.296;6.900;2023-12-07T08:31:23;2.90;99.90
66568;DHT22;53422;49.296;6.900;2023-12-07T08:33:51;3.00;99.90
66568;DHT22;53422;49.296;6.900;2023-12-07T08:36:16;3.00;99.90
66568;DHT22;53422;49.296;6.900;2023-12-07T08:38:42;3.00;99.90
66568;DHT22;53422;49.296;6.900;2023-12-07T08:41:08;3.00;99.90
66568;DHT22;53422;49.296;6.900;2023-12-07T08:43:34;3.00;99.90
66568;DHT22;53422;49.296;6.900;2023-12-07T08:45:59;3.00;99.90
66568;DHT22;53422;49.296;6.900;2023-12-07T08:48:25;3.00;99.90
66568;DHT22;53422;49.296;6.900;2023-12-07T08:50:51;2.90;99.90
66568;DHT22;53422;49.296;6.900;2023-12-07T08:53:17;2.90;99.90
66568;DHT22;53422;49.296;6.900;2023-12-07T08:55:43;2.60;99.90
66568;DHT22;53422;49.296;6.900;2023-12-07T08:58:08;2.50;99.90
66568;DHT22;53422;49.296;6.900;2023-12-07T09:00:36;2.60;99.90
66568;DHT22;53422;49.296;6.900;2023-12-07T09:03:01;2.40;99.90
66568;DHT22;53422;49.296;6.900;2023-12-07T09:05:27;2.50;99.90
66568;DHT22;53422;49.296;6.900;2023-12-07T09:07:53;2.10;99.90
66568;DHT22;53422;49.296;6.900;2023-12-07T09:10:19;2.30;99.90
66568;DHT22;53422;49.296;6.900;2023-12-07T09:12:45;2.50;99.90
66568;DHT22;53422;49.296;6.900;2023-12-07T09:15:11;2.60;99.90
66568;DHT22;53422;49.296;6.900;2023-12-07T09:17:38;2.70;99.90
66568;DHT22;53422;49.296;6.900;2023-12-07T09:20:08;2.70;99.90
66568;DHT22;53422;49.296;6.900;2023-12-07T09:22:44;2.70;99.90
66568;DHT22;53422;49.296;6.900;2023-12-07T09:25:10;2.60;99.90
66568;DHT22;53422;49.296;6.900;2023-12-07T09:27:37;2.60;99.90
66568;DHT22;53422;49.296;6.900;2023-12-07T09:30:06;2.70;99.90
66568;DHT22;53422;49.296;6.900;2023-12-07T09:32:33;2.80;99.90
66568;DHT22;53422;49.296;6.900;2023-12-07T09:35:04;2.90;99.90
66568;DHT22;53422;49.296;6.900;2023-12-07T09:37:31;2.90;99.90
66568;DHT22;53422;49.296;6.900;2023-12-07T09:39:57;3.00;99.90
66568;DHT22;53422;49.296;6.900;2023-12-07T09:42:22;3.00;99.90
66568;DHT22;53422;49.296;6.900;2023-12-07T09:44:48;3.10;99.90
66568;DHT22;53422;49.296;6.900;2023-12-07T09:47:14;3.00;99.90
66568;DHT22;53422;49.296;6.900;2023-12-07T09:49:40;3.10;99.90
66568;DHT22;53422;49.296;6.900;2023-12-07T09:52:06;3.10;99.90
66568;DHT22;53422;49.296;6.900;2023-12-07T09:54:33;3.10;99.90
66568;DHT22;53422;49.296;6.900;2023-12-07T09:57:01;3.10;99.90
66568;DHT22;53422;49.296;6.900;2023-12-07T09:59:26;3.10;99.90
66568;DHT22;53422;49.296;6.900;2023-12-07T10:01:52;3.10;99.90
66568;DHT22;53422;49.296;6.900;2023-12-07T10:04:22;3.10;99.90
66568;DHT22;53422;49.296;6.900;2023-12-07T10:06:49;3.20;99.90
66568;DHT22;53422;49.296;6.900;2023-12-07T10:09:16;3.10;99.90
66568;DHT22;53422;49.296;6.900;2023-12-07T10:11:44;3.10;99.90
66568;DHT22;53422;49.296;6.900;2023-12-07T10:14:10;3.10;99.90
66568;DHT22;53422;49.296;6.900;2023-12-07T10:16:36;3.20;99.90
66568;DHT22;53422;49.296;6.900;2023-12-07T10:19:16;3.20;99.90
66568;DHT22;53422;49.296;6.900;2023-12-07T10:21:51;3.30;99.90
66568;DHT22;53422;49.296;6.900;2023-12-07T10:24:22;3.30;99.90
66568;DHT22;53422;49.296;6.900;2023-12-07T10:26:49;3.30;99.90
66568;DHT22;53422;49.296;6.900;2023-12-07T10:29:17;3.30;99.90
66568;DHT22;53422;49.296;6.900;2023-12-07T10:31:43;3.30;99.90
66568;DHT22;53422;49.296;6.900;2023-12-07T10:34:18;3.40;99.90
66568;DHT22;53422;49.296;6.900;2023-12-07T10:36:46;3.20;99.90
66568;DHT22;53422;49.296;6.900;2023-12-07T10:39:13;3.10;99.90
66568;DHT22;53422;49.296;6.900;2023-12-07T10:41:42;3.10;99.90
66568;DHT22;53422;49.296;6.900;2023-12-07T10:44:09;3.20;99.90
66568;DHT22;53422;49.296;6.900;2023-12-07T10:46:37;3.10;99.90
66568;DHT22;53422;49.296;6.900;2023-12-07T10:49:07;3.20;99.90
66568;DHT22;53422;49.296;6.900;2023-12-07T10:51:50;3.20;99.90
66568;DHT22;53422;49.296;6.900;2023-12-07T10:54:18;3.30;99.90
66568;DHT22;53422;49.296;6.900;2023-12-07T10:56:48;3.40;99.90
66568;DHT22;53422;49.296;6.900;2023-12-07T10:59:18;3.40;99.90
66568;DHT22;53422;49.296;6.900;2023-12-07T11:01:45;3.40;99.90
66568;DHT22;53422;49.296;6.900;2023-12-07T11:04:12;3.40;99.90
66568;DHT22;53422;49.296;6.900;2023-12-07T11:06:43;3.40;99.90
66568;DHT22;53422;49.296;6.900;2023-12-07T11:09:14;3.40;99.90
66568;DHT22;53422;49.296;6.900;2023-12-07T11:14:13;3.40;99.90
66568;DHT22;53422;49.296;6.900;2023-12-07T11:16:42;3.50;99.90
66568;DHT22;53422;49.296;6.900;2023-12-07T11:22:01;3.50;99.90
66568;DHT22;53422;49.296;6.900;2023-12-07T11:24:28;3.60;99.90
66568;DHT22;53422;49.296;6.900;2023-12-07T11:26:55;3.60;99.90
66568;DHT22;53422;49.296;6.900;2023-12-07T11:29:25;3.60;99.90
66568;DHT22;53422;49.296;6.900;2023-12-07T11:31:51;3.60;99.90
66568;DHT22;53422;49.296;6.900;2023-12-07T11:34:39;3.60;99.90
66568;DHT22;53422;49.296;6.900;2023-12-07T11:37:06;3.70;99.90
66568;DHT22;53422;49.296;6.900;2023-12-07T11:39:35;3.60;99.90
66568;DHT22;53422;49.296;6.900;2023-12-07T11:42:25;3.40;99.90
66568;DHT22;53422;49.296;6.900;2023-12-07T11:44:51;3.40;99.90
66568;DHT22;53422;49.296;6.900;2023-12-07T11:47:21;3.40;99.90
66568;DHT22;53422;49.296;6.900;2023-12-07T11:49:47;3.40;99.90
66568;DHT22;53422;49.296;6.900;2023-12-07T11:52:19;3.50;99.90
66568;DHT22;53422;49.296;6.900;2023-12-07T11:54:46;3.60;99.90
66568;DHT22;53422;49.296;6.900;2023-12-07T11:57:15;3.50;99.90
66568;DHT22;53422;49.296;6.900;2023-12-07T11:59:42;3.50;99.90
66568;DHT22;53422;49.296;6.900;2023-12-07T12:02:10;3.30;99.90
66568;DHT22;53422;49.296;6.900;2023-12-07T12:04:37;3.40;99.90
66568;DHT22;53422;49.296;6.900;2023-12-07T12:07:04;3.50;99.90
66568;DHT22;53422;49.296;6.900;2023-12-07T12:09:29;3.50;99.90
66568;DHT22;53422;49.296;6.900;2023-12-07T12:11:57;3.50;99.90
66568;DHT22;53422;49.296;6.900;2023-12-07T12:14:26;3.50;99.90
66568;DHT22;53422;49.296;6.900;2023-12-07T12:16:52;3.50;99.90
66568;DHT22;53422;49.296;6.900;2023-12-07T12:19:18;3.50;99.90
66568;DHT22;53422;49.296;6.900;2023-12-07T12:21:44;3.50;99.90
66568;DHT22;53422;49.296;6.900;2023-12-07T12:24:10;3.50;99.90
66568;DHT22;53422;49.296;6.900;2023-12-07T12:26:42;3.50;99.90
66568;DHT22;53422;49.296;6.900;2023-12-07T12:29:09;3.50;99.90
66568;DHT22;53422;49.296;6.900;2023-12-07T12:31:37;3.40;99.90
66568;DHT22;53422;49.296;6.900;2023-12-07T12:34:05;3.40;99.90
66568;DHT22;53422;49.296;6.900;2023-12-07T12:36:32;3.40;99.90
66568;DHT22;53422;49.296;6.900;2023-12-07T12:38:58;3.50;99.90
66568;DHT22;53422;49.296;6.900;2023-12-07T12:41:24;3.50;99.90
66568;DHT22;53422;49.296;6.900;2023-12-07T12:43:51;3.50;99.90
66568;DHT22;53422;49.296;6.900;2023-12-07T12:46:17;3.50;99.90
66568;DHT22;53422;49.296;6.900;2023-12-07T12:51:24;3.50;99.90
66568;DHT22;53422;49.296;6.900;2023-12-07T12:53:55;3.50;99.90
66568;DHT22;53422;49.296;6.900;2023-12-07T12:56:22;3.50;99.90
66568;DHT22;53422;49.296;6.900;2023-12-07T12:58:49;3.40;99.90
66568;DHT22;53422;49.296;6.900;2023-12-07T13:01:16;3.40;99.90
66568;DHT22;53422;49.296;6.900;2023-12-07T13:03:43;3.40;99.90
66568;DHT22;53422;49.296;6.900;2023-12-07T13:06:11;3.30;99.90
66568;DHT22;53422;49.296;6.900;2023-12-07T13:08:37;3.30;99.90
66568;DHT22;53422;49.296;6.900;2023-12-07T13:11:03;3.30;99.90
66568;DHT22;53422;49.296;6.900;2023-12-07T13:13:29;3.40;99.90
66568;DHT22;53422;49.296;6.900;2023-12-07T13:15:55;3.30;99.90
66568;DHT22;53422;49.296;6.900;2023-12-07T13:18:20;3.40;99.90
66568;DHT22;53422;49.296;6.900;2023-12-07T13:20:46;3.30;99.90
66568;DHT22;53422;49.296;6.900;2023-12-07T13:23:12;3.30;99.90
66568;DHT22;53422;49.296;6.900;2023-12-07T13:25:37;3.30;99.90
66568;DHT22;53422;49.296;6.900;2023-12-07T13:28:03;3.30;99.90
66568;DHT22;53422;49.296;6.900;2023-12-07T13:30:29;3.40;99.90
66568;DHT22;53422;49.296;6.900;2023-12-07T13:32:59;3.30;99.90
66568;DHT22;53422;49.296;6.900;2023-12-07T13:35:25;3.30;99.90
66568;DHT22;53422;49.296;6.900;2023-12-07T13:37:50;3.30;99.90
66568;DHT22;53422;49.296;6.900;2023-12-07T13:40:16;3.20;99.90
66568;DHT22;53422;49.296;6.900;2023-12-07T13:42:42;3.20;99.90
66568;DHT22;53422;49.296;6.900;2023-12-07T13:45:08;3.30;99.90
66568;DHT22;53422;49.296;6.900;2023-12-07T13:47:34;3.30;99.90
66568;DHT22;53422;49.296;6.900;2023-12-07T13:50:03;3.30;99.90
66568;DHT22;53422;49.296;6.900;2023-12-07T13:52:29;3.30;99.90
66568;DHT22;53422;49.296;6.900;2023-12-07T13:54:56;3.30;99.90
66568;DHT22;53422;49.296;6.900;2023-12-07T13:57:22;3.30;99.90
66568;DHT22;53422;49.296;6.900;2023-12-07T13:59:54;3.30;99.90
66568;DHT22;53422;49.296;6.900;2023-12-07T14:02:20;3.30;99.90
66568;DHT22;53422;49.296;6.900;2023-12-07T14:04:46;3.30;99.90
66568;DHT22;53422;49.296;6.900;2023-12-07T14:07:16;3.40;99.90
66568;DHT22;53422;49.296;6.900;2023-12-07T14:09:44;3.40;99.90
66568;DHT22;53422;49.296;6.900;2023-12-07T14:12:11;3.30;99.90
66568;DHT22;53422;49.296;6.900;2023-12-07T14:14:46;3.30;99.90
66568;DHT22;53422;49.296;6.900;2023-12-07T14:17:15;3.30;99.90
66568;DHT22;53422;49.296;6.900;2023-12-07T14:19:42;3.30;99.90
66568;DHT22;53422;49.296;6.900;2023-12-07T14:22:08;3.30;99.90
66568;DHT22;53422;49.296;6.900;2023-12-07T14:24:37;3.30;99.90
66568;DHT22;53422;49.296;6.900;2023-12-07T14:27:04;3.30;99.90
66568;DHT22;53422;49.296;6.900;2023-12-07T14:29:29;3.30;99.90
66568;DHT22;53422;49.296;6.900;2023-12-07T14:31:57;3.30;99.90
66568;DHT22;53422;49.296;6.900;2023-12-07T14:34:23;3.30;99.90
66568;DHT22;53422;49.296;6.900;2023-12-07T14:36:49;3.40;99.90
66568;DHT22;53422;49.296;6.900;2023-12-07T14:39:15;3.40;99.90
66568;DHT22;53422;49.296;6.900;2023-12-07T14:41:43;3.20;99.90
66568;DHT22;53422;49.296;6.900;2023-12-07T14:44:10;3.20;99.90
66568;DHT22;53422;49.296;6.900;2023-12-07T14:46:35;3.20;99.90
66568;DHT22;53422;49.296;6.900;2023-12-07T14:49:01;3.20;99.90
66568;DHT22;53422;49.296;6.900;2023-12-07T14:51:28;3.20;99.90
66568;DHT22;53422;49.296;6.900;2023-12-07T14:53:54;3.10;99.90
66568;DHT22;53422;49.296;6.900;2023-12-07T14:56:19;3.20;99.90
66568;DHT22;53422;49.296;6.900;2023-12-07T14:58:47;3.20;99.90
66568;DHT22;53422;49.296;6.900;2023-12-07T15:01:12;3.20;99.90
66568;DHT22;53422;49.296;6.900;2023-12-07T15:03:38;3.10;99.90
66568;DHT22;53422;49.296;6.900;2023-12-07T15:06:04;3.20;99.90
66568;DHT22;53422;49.296;6.900;2023-12-07T15:08:30;3.10;99.90
66568;DHT22;53422;49.296;6.900;2023-12-07T15:10:55;3.00;99.90
66568;DHT22;53422;49.296;6.900;2023-12-07T15:13:21;3.00;99.90
66568;DHT22;53422;49.296;6.900;2023-12-07T15:15:47;3.10;99.90
66568;DHT22;53422;49.296;6.900;2023-12-07T15:18:12;3.10;99.90
66568;DHT22;53422;49.296;6.900;2023-12-07T15:20:38;3.00;99.90
66568;DHT22;53422;49.296;6.900;2023-12-07T15:23:04;3.00;99.90
66568;DHT22;53422;49.296;6.900;2023-12-07T15:25:31;3.00;99.90
66568;DHT22;53422;49.296;6.900;2023-12-07T15:27:56;2.90;99.90
66568;DHT22;53422;49.296;6.900;2023-12-07T15:30:23;3.00;99.90
66568;DHT22;53422;49.296;6.900;2023-12-07T15:32:52;2.90;99.90
66568;DHT22;53422;49.296;6.900;2023-12-07T15:35:17;2.90;99.90
66568;DHT22;53422;49.296;6.900;2023-12-07T15:37:43;2.90;99.90
66568;DHT22;53422;49.296;6.900;2023-12-07T15:40:10;3.00;99.90
66568;DHT22;53422;49.296;6.900;2023-12-07T15:42:39;3.00;99.90
66568;DHT22;53422;49.296;6.900;2023-12-07T15:45:07;2.90;99.90
66568;DHT22;53422;49.296;6.900;2023-12-07T15:47:33;3.00;99.90
66568;DHT22;53422;49.296;6.900;2023-12-07T15:49:59;2.90;99.90